Terminal Aerodrome Forecast
Issued by NWS

Home | Current Version | Previous Version | Text Only | Print | Product List | Glossary On
Versions: 1 2 3 4 5 6 7 8 9 10 11 12 13 14 15
853
FTAK31 PAJN 292203 AAB
TAFASI
TAF AMD
PASI 292203Z 2922/3018 09006KT P6SM -SHRA SCT040 BKN050 OVC080
     FM300100 07006KT P6SM -SHRA BKN030 OVC050
     FM301400 10005KT P6SM VCSH BKN040 OVC060=

USA.gov is the U.S. government's official web portal to all federal, state and local government web resources and services.